sensor_id;sensor_type;location;lat;lon;timestamp;P1;durP1;ratioP1;P2;durP2;ratioP2
12770;SDS011;6449;47.666;9.160;2023-03-01T00:00:47;25.10;;;18.33;;
12770;SDS011;6449;47.666;9.160;2023-03-01T00:05:43;25.20;;;18.77;;
12770;SDS011;6449;47.666;9.160;2023-03-01T00:10:37;22.40;;;18.00;;
12770;SDS011;6449;47.666;9.160;2023-03-01T00:15:32;24.93;;;18.10;;
12770;SDS011;6449;47.666;9.160;2023-03-01T00:20:26;26.17;;;18.50;;
12770;SDS011;6449;47.666;9.160;2023-03-01T00:25:20;24.73;;;17.37;;
12770;SDS011;6449;47.666;9.160;2023-03-01T00:30:13;25.30;;;18.50;;
12770;SDS011;6449;47.666;9.160;2023-03-01T00:35:09;24.97;;;18.00;;
12770;SDS011;6449;47.666;9.160;2023-03-01T00:40:02;25.60;;;18.07;;
12770;SDS011;6449;47.666;9.160;2023-03-01T00:44:57;25.23;;;18.33;;
12770;SDS011;6449;47.666;9.160;2023-03-01T00:49:50;25.47;;;19.23;;
12770;SDS011;6449;47.666;9.160;2023-03-01T00:54:45;25.77;;;19.07;;
12770;SDS011;6449;47.666;9.160;2023-03-01T00:59:38;24.90;;;18.57;;
12770;SDS011;6449;47.666;9.160;2023-03-01T01:04:32;28.20;;;20.37;;
12770;SDS011;6449;47.666;9.160;2023-03-01T01:09:25;27.93;;;19.80;;
12770;SDS011;6449;47.666;9.160;2023-03-01T01:14:20;27.57;;;20.03;;
12770;SDS011;6449;47.666;9.160;2023-03-01T01:19:13;27.63;;;19.83;;
12770;SDS011;6449;47.666;9.160;2023-03-01T01:24:07;26.43;;;18.97;;
12770;SDS011;6449;47.666;9.160;2023-03-01T01:29:02;31.10;;;21.10;;
12770;SDS011;6449;47.666;9.160;2023-03-01T01:33:58;30.20;;;20.53;;
12770;SDS011;6449;47.666;9.160;2023-03-01T01:38:53;29.73;;;20.07;;
12770;SDS011;6449;47.666;9.160;2023-03-01T01:43:47;27.93;;;20.67;;
12770;SDS011;6449;47.666;9.160;2023-03-01T01:49:03;27.77;;;20.03;;
12770;SDS011;6449;47.666;9.160;2023-03-01T01:54:05;30.83;;;21.13;;
12770;SDS011;6449;47.666;9.160;2023-03-01T01:59:06;29.93;;;19.87;;
12770;SDS011;6449;47.666;9.160;2023-03-01T02:03:59;31.77;;;21.37;;
12770;SDS011;6449;47.666;9.160;2023-03-01T02:08:55;29.37;;;20.27;;
12770;SDS011;6449;47.666;9.160;2023-03-01T02:13:53;30.20;;;20.57;;
12770;SDS011;6449;47.666;9.160;2023-03-01T02:18:47;30.93;;;20.97;;
12770;SDS011;6449;47.666;9.160;2023-03-01T02:23:42;32.47;;;22.23;;
12770;SDS011;6449;47.666;9.160;2023-03-01T02:28:38;31.47;;;20.73;;
12770;SDS011;6449;47.666;9.160;2023-03-01T02:33:35;29.40;;;21.13;;
12770;SDS011;6449;47.666;9.160;2023-03-01T02:38:31;30.03;;;20.90;;
12770;SDS011;6449;47.666;9.160;2023-03-01T02:43:25;35.07;;;21.87;;
12770;SDS011;6449;47.666;9.160;2023-03-01T02:48:24;30.33;;;21.77;;
12770;SDS011;6449;47.666;9.160;2023-03-01T02:53:19;31.77;;;21.90;;
12770;SDS011;6449;47.666;9.160;2023-03-01T02:58:23;30.33;;;21.67;;
12770;SDS011;6449;47.666;9.160;2023-03-01T03:03:17;31.13;;;21.50;;
12770;SDS011;6449;47.666;9.160;2023-03-01T03:08:14;29.90;;;20.13;;
12770;SDS011;6449;47.666;9.160;2023-03-01T03:13:15;31.33;;;20.90;;
12770;SDS011;6449;47.666;9.160;2023-03-01T03:18:12;32.07;;;21.87;;
12770;SDS011;6449;47.666;9.160;2023-03-01T03:23:10;28.23;;;19.83;;
12770;SDS011;6449;47.666;9.160;2023-03-01T03:28:06;28.67;;;20.20;;
12770;SDS011;6449;47.666;9.160;2023-03-01T03:33:02;30.93;;;21.57;;
12770;SDS011;6449;47.666;9.160;2023-03-01T03:37:55;27.93;;;20.03;;
12770;SDS011;6449;47.666;9.160;2023-03-01T03:42:57;30.93;;;19.13;;
12770;SDS011;6449;47.666;9.160;2023-03-01T03:47:51;28.80;;;19.67;;
12770;SDS011;6449;47.666;9.160;2023-03-01T03:52:45;26.10;;;18.37;;
12770;SDS011;6449;47.666;9.160;2023-03-01T03:57:39;29.97;;;19.80;;
12770;SDS011;6449;47.666;9.160;2023-03-01T04:02:33;28.33;;;19.33;;
12770;SDS011;6449;47.666;9.160;2023-03-01T04:07:28;27.27;;;19.13;;
12770;SDS011;6449;47.666;9.160;2023-03-01T04:12:22;28.47;;;19.10;;
12770;SDS011;6449;47.666;9.160;2023-03-01T04:17:19;29.53;;;19.37;;
12770;SDS011;6449;47.666;9.160;2023-03-01T04:22:12;27.60;;;19.17;;
12770;SDS011;6449;47.666;9.160;2023-03-01T04:27:10;26.37;;;19.27;;
12770;SDS011;6449;47.666;9.160;2023-03-01T04:32:04;27.87;;;19.53;;
12770;SDS011;6449;47.666;9.160;2023-03-01T04:36:57;28.43;;;19.47;;
12770;SDS011;6449;47.666;9.160;2023-03-01T04:41:50;26.90;;;19.20;;
12770;SDS011;6449;47.666;9.160;2023-03-01T04:46:45;29.77;;;19.43;;
12770;SDS011;6449;47.666;9.160;2023-03-01T04:51:42;29.10;;;19.23;;
12770;SDS011;6449;47.666;9.160;2023-03-01T04:56:35;27.93;;;17.90;;
12770;SDS011;6449;47.666;9.160;2023-03-01T05:01:29;26.37;;;19.33;;
12770;SDS011;6449;47.666;9.160;2023-03-01T05:06:24;31.33;;;21.13;;
12770;SDS011;6449;47.666;9.160;2023-03-01T05:11:17;28.60;;;19.23;;
12770;SDS011;6449;47.666;9.160;2023-03-01T05:16:11;27.90;;;19.57;;
12770;SDS011;6449;47.666;9.160;2023-03-01T05:21:05;27.23;;;19.30;;
12770;SDS011;6449;47.666;9.160;2023-03-01T05:26:01;28.53;;;19.30;;
12770;SDS011;6449;47.666;9.160;2023-03-01T05:31:01;27.87;;;19.20;;
12770;SDS011;6449;47.666;9.160;2023-03-01T05:36:01;28.87;;;19.00;;
12770;SDS011;6449;47.666;9.160;2023-03-01T05:40:54;28.27;;;19.67;;
12770;SDS011;6449;47.666;9.160;2023-03-01T05:45:49;29.57;;;19.30;;
12770;SDS011;6449;47.666;9.160;2023-03-01T05:50:43;27.97;;;19.73;;
12770;SDS011;6449;47.666;9.160;2023-03-01T05:55:38;27.60;;;19.90;;
12770;SDS011;6449;47.666;9.160;2023-03-01T06:00:33;27.80;;;19.50;;
12770;SDS011;6449;47.666;9.160;2023-03-01T06:05:28;30.43;;;20.03;;
12770;SDS011;6449;47.666;9.160;2023-03-01T06:10:22;28.67;;;19.60;;
12770;SDS011;6449;47.666;9.160;2023-03-01T06:15:16;27.87;;;18.60;;
12770;SDS011;6449;47.666;9.160;2023-03-01T06:20:11;28.17;;;18.93;;
12770;SDS011;6449;47.666;9.160;2023-03-01T06:25:09;30.50;;;20.40;;
12770;SDS011;6449;47.666;9.160;2023-03-01T06:30:04;32.03;;;21.10;;
12770;SDS011;6449;47.666;9.160;2023-03-01T06:35:01;30.90;;;20.77;;
12770;SDS011;6449;47.666;9.160;2023-03-01T06:39:54;32.33;;;20.30;;
12770;SDS011;6449;47.666;9.160;2023-03-01T06:44:59;30.73;;;20.23;;
12770;SDS011;6449;47.666;9.160;2023-03-01T06:49:53;29.30;;;20.07;;
12770;SDS011;6449;47.666;9.160;2023-03-01T06:54:46;29.73;;;19.83;;
12770;SDS011;6449;47.666;9.160;2023-03-01T06:59:39;29.97;;;20.07;;
12770;SDS011;6449;47.666;9.160;2023-03-01T07:04:34;29.40;;;19.20;;
12770;SDS011;6449;47.666;9.160;2023-03-01T07:09:28;30.40;;;19.90;;
12770;SDS011;6449;47.666;9.160;2023-03-01T07:14:21;29.10;;;20.17;;
12770;SDS011;6449;47.666;9.160;2023-03-01T07:19:17;30.00;;;19.73;;
12770;SDS011;6449;47.666;9.160;2023-03-01T07:24:11;31.63;;;20.43;;
12770;SDS011;6449;47.666;9.160;2023-03-01T07:29:07;31.43;;;20.87;;
12770;SDS011;6449;47.666;9.160;2023-03-01T07:34:02;29.63;;;20.27;;
12770;SDS011;6449;47.666;9.160;2023-03-01T07:38:58;34.17;;;21.50;;
12770;SDS011;6449;47.666;9.160;2023-03-01T07:43:54;33.93;;;21.67;;
12770;SDS011;6449;47.666;9.160;2023-03-01T07:48:48;34.97;;;21.87;;
12770;SDS011;6449;47.666;9.160;2023-03-01T07:53:41;32.43;;;22.03;;
12770;SDS011;6449;47.666;9.160;2023-03-01T07:58:38;35.10;;;21.63;;
12770;SDS011;6449;47.666;9.160;2023-03-01T08:03:35;34.50;;;22.40;;
12770;SDS011;6449;47.666;9.160;2023-03-01T08:08:30;32.83;;;22.60;;
12770;SDS011;6449;47.666;9.160;2023-03-01T08:13:24;31.70;;;20.97;;
12770;SDS011;6449;47.666;9.160;2023-03-01T08:18:18;31.40;;;21.43;;
12770;SDS011;6449;47.666;9.160;2023-03-01T08:23:15;30.53;;;20.60;;
12770;SDS011;6449;47.666;9.160;2023-03-01T08:28:08;33.77;;;21.53;;
12770;SDS011;6449;47.666;9.160;2023-03-01T08:33:02;32.67;;;20.90;;
12770;SDS011;6449;47.666;9.160;2023-03-01T08:37:58;32.10;;;20.40;;
12770;SDS011;6449;47.666;9.160;2023-03-01T08:42:53;36.53;;;21.17;;
12770;SDS011;6449;47.666;9.160;2023-03-01T08:47:47;32.80;;;22.07;;
12770;SDS011;6449;47.666;9.160;2023-03-01T08:52:44;30.73;;;21.27;;
12770;SDS011;6449;47.666;9.160;2023-03-01T08:57:38;30.17;;;20.87;;
12770;SDS011;6449;47.666;9.160;2023-03-01T09:02:32;30.63;;;20.40;;
12770;SDS011;6449;47.666;9.160;2023-03-01T09:07:26;31.83;;;21.13;;
12770;SDS011;6449;47.666;9.160;2023-03-01T09:12:20;32.83;;;21.40;;
12770;SDS011;6449;47.666;9.160;2023-03-01T09:17:16;32.47;;;21.27;;
12770;SDS011;6449;47.666;9.160;2023-03-01T09:22:10;30.93;;;20.37;;
12770;SDS011;6449;47.666;9.160;2023-03-01T09:27:04;28.77;;;19.70;;
12770;SDS011;6449;47.666;9.160;2023-03-01T09:31:59;30.90;;;20.10;;
12770;SDS011;6449;47.666;9.160;2023-03-01T09:36:53;29.77;;;19.87;;
12770;SDS011;6449;47.666;9.160;2023-03-01T09:41:49;31.20;;;21.20;;
12770;SDS011;6449;47.666;9.160;2023-03-01T09:46:53;27.57;;;19.77;;
12770;SDS011;6449;47.666;9.160;2023-03-01T09:51:54;26.27;;;18.83;;
12770;SDS011;6449;47.666;9.160;2023-03-01T09:56:57;29.60;;;21.20;;
12770;SDS011;6449;47.666;9.160;2023-03-01T10:02:05;31.53;;;19.87;;
12770;SDS011;6449;47.666;9.160;2023-03-01T10:07:20;31.30;;;20.73;;
12770;SDS011;6449;47.666;9.160;2023-03-01T10:12:27;28.47;;;20.50;;
12770;SDS011;6449;47.666;9.160;2023-03-01T10:17:30;29.50;;;20.70;;
12770;SDS011;6449;47.666;9.160;2023-03-01T10:22:29;29.93;;;20.10;;
12770;SDS011;6449;47.666;9.160;2023-03-01T10:27:25;31.53;;;20.77;;
12770;SDS011;6449;47.666;9.160;2023-03-01T10:32:30;33.67;;;22.07;;
12770;SDS011;6449;47.666;9.160;2023-03-01T10:37:24;31.27;;;20.30;;
12770;SDS011;6449;47.666;9.160;2023-03-01T10:42:19;34.50;;;22.77;;
12770;SDS011;6449;47.666;9.160;2023-03-01T10:47:22;28.73;;;19.83;;
12770;SDS011;6449;47.666;9.160;2023-03-01T10:52:20;33.97;;;20.73;;
12770;SDS011;6449;47.666;9.160;2023-03-01T10:57:24;29.77;;;20.77;;
12770;SDS011;6449;47.666;9.160;2023-03-01T11:02:28;28.53;;;20.07;;
12770;SDS011;6449;47.666;9.160;2023-03-01T11:07:25;29.53;;;20.37;;
12770;SDS011;6449;47.666;9.160;2023-03-01T11:12:19;28.87;;;20.77;;
12770;SDS011;6449;47.666;9.160;2023-03-01T11:17:17;33.60;;;21.83;;
12770;SDS011;6449;47.666;9.160;2023-03-01T11:22:16;29.40;;;20.37;;
12770;SDS011;6449;47.666;9.160;2023-03-01T11:27:16;26.60;;;19.50;;
12770;SDS011;6449;47.666;9.160;2023-03-01T11:32:15;30.00;;;19.87;;
12770;SDS011;6449;47.666;9.160;2023-03-01T11:37:13;31.87;;;20.03;;
12770;SDS011;6449;47.666;9.160;2023-03-01T11:42:24;30.70;;;19.87;;
12770;SDS011;6449;47.666;9.160;2023-03-01T11:47:39;30.63;;;20.93;;
12770;SDS011;6449;47.666;9.160;2023-03-01T11:52:55;29.53;;;20.57;;
12770;SDS011;6449;47.666;9.160;2023-03-01T11:58:23;32.87;;;20.37;;
12770;SDS011;6449;47.666;9.160;2023-03-01T12:09:21;29.83;;;19.83;;
12770;SDS011;6449;47.666;9.160;2023-03-01T12:14:47;32.40;;;20.70;;
12770;SDS011;6449;47.666;9.160;2023-03-01T12:25:25;28.07;;;19.17;;
12770;SDS011;6449;47.666;9.160;2023-03-01T12:30:29;29.07;;;19.83;;
12770;SDS011;6449;47.666;9.160;2023-03-01T12:35:44;30.67;;;19.53;;
12770;SDS011;6449;47.666;9.160;2023-03-01T12:41:10;27.07;;;19.40;;
12770;SDS011;6449;47.666;9.160;2023-03-01T12:46:33;30.10;;;19.83;;
12770;SDS011;6449;47.666;9.160;2023-03-01T12:51:47;28.00;;;19.00;;
12770;SDS011;6449;47.666;9.160;2023-03-01T12:56:49;28.77;;;19.83;;
12770;SDS011;6449;47.666;9.160;2023-03-01T13:01:45;29.40;;;19.83;;
12770;SDS011;6449;47.666;9.160;2023-03-01T13:06:53;29.07;;;19.77;;
12770;SDS011;6449;47.666;9.160;2023-03-01T13:12:02;28.27;;;19.53;;
12770;SDS011;6449;47.666;9.160;2023-03-01T13:17:21;30.77;;;19.87;;
12770;SDS011;6449;47.666;9.160;2023-03-01T13:22:27;28.87;;;20.00;;
12770;SDS011;6449;47.666;9.160;2023-03-01T13:27:34;30.03;;;20.40;;
12770;SDS011;6449;47.666;9.160;2023-03-01T13:32:29;27.23;;;18.80;;
12770;SDS011;6449;47.666;9.160;2023-03-01T13:37:40;26.07;;;18.23;;
12770;SDS011;6449;47.666;9.160;2023-03-01T13:42:41;27.13;;;18.90;;
12770;SDS011;6449;47.666;9.160;2023-03-01T13:47:51;24.40;;;17.63;;
12770;SDS011;6449;47.666;9.160;2023-03-01T13:52:53;26.63;;;19.07;;
12770;SDS011;6449;47.666;9.160;2023-03-01T13:57:54;28.20;;;19.43;;
12770;SDS011;6449;47.666;9.160;2023-03-01T14:02:59;27.67;;;18.67;;
12770;SDS011;6449;47.666;9.160;2023-03-01T14:08:05;27.77;;;19.23;;
12770;SDS011;6449;47.666;9.160;2023-03-01T14:13:19;30.70;;;20.77;;
12770;SDS011;6449;47.666;9.160;2023-03-01T14:18:29;29.77;;;19.17;;
12770;SDS011;6449;47.666;9.160;2023-03-01T14:23:33;29.63;;;20.10;;
12770;SDS011;6449;47.666;9.160;2023-03-01T14:28:28;29.50;;;20.03;;
12770;SDS011;6449;47.666;9.160;2023-03-01T14:33:25;29.53;;;19.53;;
12770;SDS011;6449;47.666;9.160;2023-03-01T14:38:22;28.50;;;19.67;;
12770;SDS011;6449;47.666;9.160;2023-03-01T14:43:24;28.30;;;19.37;;
12770;SDS011;6449;47.666;9.160;2023-03-01T14:48:18;29.77;;;19.60;;
12770;SDS011;6449;47.666;9.160;2023-03-01T14:53:15;27.90;;;19.67;;
12770;SDS011;6449;47.666;9.160;2023-03-01T14:58:12;28.87;;;20.37;;
12770;SDS011;6449;47.666;9.160;2023-03-01T15:03:13;28.67;;;20.33;;
12770;SDS011;6449;47.666;9.160;2023-03-01T15:08:17;30.27;;;20.30;;
12770;SDS011;6449;47.666;9.160;2023-03-01T15:13:20;28.27;;;19.57;;
12770;SDS011;6449;47.666;9.160;2023-03-01T15:18:18;26.27;;;19.63;;
12770;SDS011;6449;47.666;9.160;2023-03-01T15:23:20;29.20;;;20.40;;
12770;SDS011;6449;47.666;9.160;2023-03-01T15:28:23;28.27;;;19.87;;
12770;SDS011;6449;47.666;9.160;2023-03-01T15:33:27;29.93;;;20.53;;
12770;SDS011;6449;47.666;9.160;2023-03-01T15:38:26;32.27;;;20.17;;
12770;SDS011;6449;47.666;9.160;2023-03-01T15:43:38;28.80;;;19.70;;
12770;SDS011;6449;47.666;9.160;2023-03-01T15:48:37;28.67;;;19.43;;
12770;SDS011;6449;47.666;9.160;2023-03-01T15:53:31;31.00;;;20.20;;
12770;SDS011;6449;47.666;9.160;2023-03-01T15:58:29;27.97;;;20.10;;
12770;SDS011;6449;47.666;9.160;2023-03-01T16:03:23;31.57;;;20.27;;
12770;SDS011;6449;47.666;9.160;2023-03-01T16:08:18;28.77;;;20.83;;
12770;SDS011;6449;47.666;9.160;2023-03-01T16:13:11;29.27;;;19.93;;
12770;SDS011;6449;47.666;9.160;2023-03-01T16:18:05;31.17;;;21.20;;
12770;SDS011;6449;47.666;9.160;2023-03-01T16:23:02;28.27;;;19.67;;
12770;SDS011;6449;47.666;9.160;2023-03-01T16:28:00;29.03;;;20.40;;
12770;SDS011;6449;47.666;9.160;2023-03-01T16:33:00;31.30;;;21.07;;
12770;SDS011;6449;47.666;9.160;2023-03-01T16:38:15;29.47;;;20.77;;
12770;SDS011;6449;47.666;9.160;2023-03-01T16:43:10;31.17;;;20.80;;
12770;SDS011;6449;47.666;9.160;2023-03-01T16:48:04;28.60;;;20.43;;
12770;SDS011;6449;47.666;9.160;2023-03-01T16:52:58;31.00;;;21.07;;
12770;SDS011;6449;47.666;9.160;2023-03-01T16:57:51;31.90;;;21.23;;
12770;SDS011;6449;47.666;9.160;2023-03-01T17:02:46;33.77;;;21.23;;
12770;SDS011;6449;47.666;9.160;2023-03-01T17:07:40;34.53;;;21.80;;
12770;SDS011;6449;47.666;9.160;2023-03-01T17:12:33;32.80;;;21.87;;
12770;SDS011;6449;47.666;9.160;2023-03-01T17:17:27;29.97;;;19.80;;
12770;SDS011;6449;47.666;9.160;2023-03-01T17:22:22;32.63;;;21.53;;
12770;SDS011;6449;47.666;9.160;2023-03-01T17:27:15;29.60;;;19.50;;
12770;SDS011;6449;47.666;9.160;2023-03-01T17:32:09;31.30;;;20.77;;
12770;SDS011;6449;47.666;9.160;2023-03-01T17:37:03;31.40;;;20.17;;
12770;SDS011;6449;47.666;9.160;2023-03-01T17:41:58;29.17;;;19.03;;
12770;SDS011;6449;47.666;9.160;2023-03-01T17:46:51;28.17;;;20.40;;
12770;SDS011;6449;47.666;9.160;2023-03-01T17:51:45;26.27;;;18.97;;
12770;SDS011;6449;47.666;9.160;2023-03-01T17:56:50;29.00;;;19.83;;
12770;SDS011;6449;47.666;9.160;2023-03-01T18:02:26;29.87;;;20.50;;
12770;SDS011;6449;47.666;9.160;2023-03-01T18:07:40;27.57;;;19.87;;
12770;SDS011;6449;47.666;9.160;2023-03-01T18:19:12;30.63;;;19.40;;
12770;SDS011;6449;47.666;9.160;2023-03-01T18:24:05;30.63;;;19.83;;
12770;SDS011;6449;47.666;9.160;2023-03-01T18:35:34;27.53;;;19.67;;
12770;SDS011;6449;47.666;9.160;2023-03-01T18:40:29;26.73;;;18.53;;
12770;SDS011;6449;47.666;9.160;2023-03-01T18:45:29;29.93;;;20.97;;
12770;SDS011;6449;47.666;9.160;2023-03-01T18:50:28;28.87;;;20.77;;
12770;SDS011;6449;47.666;9.160;2023-03-01T18:55:28;30.83;;;20.40;;
12770;SDS011;6449;47.666;9.160;2023-03-01T19:00:26;30.20;;;20.40;;
12770;SDS011;6449;47.666;9.160;2023-03-01T19:05:23;27.53;;;19.40;;
12770;SDS011;6449;47.666;9.160;2023-03-01T19:10:29;29.47;;;20.67;;
12770;SDS011;6449;47.666;9.160;2023-03-01T19:15:25;29.47;;;20.53;;
12770;SDS011;6449;47.666;9.160;2023-03-01T19:20:20;28.37;;;20.80;;
12770;SDS011;6449;47.666;9.160;2023-03-01T19:25:15;35.23;;;23.20;;
12770;SDS011;6449;47.666;9.160;2023-03-01T19:30:11;32.27;;;21.83;;
12770;SDS011;6449;47.666;9.160;2023-03-01T19:35:05;30.70;;;20.70;;
12770;SDS011;6449;47.666;9.160;2023-03-01T19:40:05;32.70;;;21.60;;
12770;SDS011;6449;47.666;9.160;2023-03-01T19:45:21;31.70;;;21.40;;
12770;SDS011;6449;47.666;9.160;2023-03-01T19:50:23;31.80;;;22.67;;
12770;SDS011;6449;47.666;9.160;2023-03-01T19:55:17;31.93;;;21.77;;
12770;SDS011;6449;47.666;9.160;2023-03-01T20:00:10;32.97;;;22.73;;
12770;SDS011;6449;47.666;9.160;2023-03-01T20:05:07;30.90;;;20.87;;
12770;SDS011;6449;47.666;9.160;2023-03-01T20:10:02;31.53;;;21.70;;
12770;SDS011;6449;47.666;9.160;2023-03-01T20:14:56;31.27;;;21.30;;
12770;SDS011;6449;47.666;9.160;2023-03-01T20:19:49;30.97;;;21.50;;
12770;SDS011;6449;47.666;9.160;2023-03-01T20:24:44;31.63;;;22.53;;
12770;SDS011;6449;47.666;9.160;2023-03-01T20:29:38;35.37;;;22.60;;
12770;SDS011;6449;47.666;9.160;2023-03-01T20:34:31;37.70;;;24.17;;
12770;SDS011;6449;47.666;9.160;2023-03-01T20:39:25;32.83;;;23.03;;
12770;SDS011;6449;47.666;9.160;2023-03-01T20:44:21;33.60;;;22.67;;
12770;SDS011;6449;47.666;9.160;2023-03-01T20:49:14;31.20;;;22.07;;
12770;SDS011;6449;47.666;9.160;2023-03-01T20:54:07;31.43;;;21.73;;
12770;SDS011;6449;47.666;9.160;2023-03-01T20:59:01;32.13;;;21.57;;
12770;SDS011;6449;47.666;9.160;2023-03-01T21:03:57;31.10;;;21.57;;
12770;SDS011;6449;47.666;9.160;2023-03-01T21:08:50;28.77;;;21.07;;
12770;SDS011;6449;47.666;9.160;2023-03-01T21:13:45;33.93;;;23.23;;
12770;SDS011;6449;47.666;9.160;2023-03-01T21:18:39;31.03;;;21.67;;
12770;SDS011;6449;47.666;9.160;2023-03-01T21:23:35;35.70;;;22.47;;
12770;SDS011;6449;47.666;9.160;2023-03-01T21:28:30;35.20;;;23.00;;
12770;SDS011;6449;47.666;9.160;2023-03-01T21:33:24;30.90;;;22.00;;
12770;SDS011;6449;47.666;9.160;2023-03-01T21:38:18;33.70;;;22.33;;
12770;SDS011;6449;47.666;9.160;2023-03-01T21:43:12;34.23;;;22.37;;
12770;SDS011;6449;47.666;9.160;2023-03-01T21:48:06;32.20;;;22.17;;
12770;SDS011;6449;47.666;9.160;2023-03-01T21:52:59;32.73;;;22.47;;
12770;SDS011;6449;47.666;9.160;2023-03-01T21:57:55;30.73;;;21.23;;
12770;SDS011;6449;47.666;9.160;2023-03-01T22:02:50;30.73;;;21.67;;
12770;SDS011;6449;47.666;9.160;2023-03-01T22:07:48;31.87;;;21.97;;
12770;SDS011;6449;47.666;9.160;2023-03-01T22:12:42;31.03;;;21.63;;
12770;SDS011;6449;47.666;9.160;2023-03-01T22:17:35;33.63;;;23.57;;
12770;SDS011;6449;47.666;9.160;2023-03-01T22:22:29;34.30;;;22.93;;
12770;SDS011;6449;47.666;9.160;2023-03-01T22:27:23;30.90;;;21.87;;
12770;SDS011;6449;47.666;9.160;2023-03-01T22:32:17;34.00;;;22.97;;
12770;SDS011;6449;47.666;9.160;2023-03-01T22:37:10;33.27;;;23.20;;
12770;SDS011;6449;47.666;9.160;2023-03-01T22:42:05;31.50;;;22.20;;
12770;SDS011;6449;47.666;9.160;2023-03-01T22:46:59;33.57;;;22.17;;
12770;SDS011;6449;47.666;9.160;2023-03-01T22:51:53;34.37;;;23.10;;
12770;SDS011;6449;47.666;9.160;2023-03-01T22:56:50;34.10;;;23.03;;
12770;SDS011;6449;47.666;9.160;2023-03-01T23:01:44;33.10;;;23.07;;
12770;SDS011;6449;47.666;9.160;2023-03-01T23:06:38;35.03;;;24.40;;
12770;SDS011;6449;47.666;9.160;2023-03-01T23:11:41;33.43;;;23.63;;
12770;SDS011;6449;47.666;9.160;2023-03-01T23:16:35;32.20;;;23.13;;
12770;SDS011;6449;47.666;9.160;2023-03-01T23:21:30;51.37;;;30.77;;
12770;SDS011;6449;47.666;9.160;2023-03-01T23:26:24;37.80;;;26.20;;
12770;SDS011;6449;47.666;9.160;2023-03-01T23:31:19;38.33;;;25.80;;
12770;SDS011;6449;47.666;9.160;2023-03-01T23:36:14;36.37;;;24.40;;
12770;SDS011;6449;47.666;9.160;2023-03-01T23:41:12;37.07;;;25.53;;
12770;SDS011;6449;47.666;9.160;2023-03-01T23:46:07;37.47;;;24.20;;
12770;SDS011;6449;47.666;9.160;2023-03-01T23:51:05;39.67;;;25.83;;
12770;SDS011;6449;47.666;9.160;2023-03-01T23:55:59;33.70;;;23.17;;
